sensor_id;sensor_type;location;lat;lon;timestamp;temperature;humidity
65239;SHT30;51827;51.186;6.926;2023-02-28T00:00:36;18.55;44.46
65239;SHT30;51827;51.186;6.926;2023-02-28T00:01:37;18.54;44.42
65239;SHT30;51827;51.186;6.926;2023-02-28T00:02:37;18.52;44.46
65239;SHT30;51827;51.186;6.926;2023-02-28T00:03:37;18.51;44.47
65239;SHT30;51827;51.186;6.926;2023-02-28T00:04:37;18.54;44.40
65239;SHT30;51827;51.186;6.926;2023-02-28T00:05:37;18.54;44.40
65239;SHT30;51827;51.186;6.926;2023-02-28T00:06:38;18.52;44.49
65239;SHT30;51827;51.186;6.926;2023-02-28T00:07:38;18.54;44.45
65239;SHT30;51827;51.186;6.926;2023-02-28T00:08:38;18.52;44.41
65239;SHT30;51827;51.186;6.926;2023-02-28T00:09:38;18.52;44.47
65239;SHT30;51827;51.186;6.926;2023-02-28T00:10:39;18.49;44.49
65239;SHT30;51827;51.186;6.926;2023-02-28T00:11:39;18.51;44.42
65239;SHT30;51827;51.186;6.926;2023-02-28T00:12:39;18.51;44.44
65239;SHT30;51827;51.186;6.926;2023-02-28T00:13:40;18.51;44.49
65239;SHT30;51827;51.186;6.926;2023-02-28T00:14:41;18.54;44.41
65239;SHT30;51827;51.186;6.926;2023-02-28T00:15:41;18.51;44.41
65239;SHT30;51827;51.186;6.926;2023-02-28T00:16:41;18.49;44.43
65239;SHT30;51827;51.186;6.926;2023-02-28T00:17:41;18.51;44.43
65239;SHT30;51827;51.186;6.926;2023-02-28T00:18:41;18.49;44.45
65239;SHT30;51827;51.186;6.926;2023-02-28T00:19:42;18.49;44.43
65239;SHT30;51827;51.186;6.926;2023-02-28T00:20:42;18.49;44.38
65239;SHT30;51827;51.186;6.926;2023-02-28T00:21:42;18.48;44.38
65239;SHT30;51827;51.186;6.926;2023-02-28T00:22:43;18.49;44.35
65239;SHT30;51827;51.186;6.926;2023-02-28T00:23:43;18.51;44.42
65239;SHT30;51827;51.186;6.926;2023-02-28T00:24:44;18.48;44.38
65239;SHT30;51827;51.186;6.926;2023-02-28T00:25:44;18.49;44.37
65239;SHT30;51827;51.186;6.926;2023-02-28T00:26:45;18.49;44.34
65239;SHT30;51827;51.186;6.926;2023-02-28T00:27:45;18.49;44.38
65239;SHT30;51827;51.186;6.926;2023-02-28T00:28:45;18.52;44.36
65239;SHT30;51827;51.186;6.926;2023-02-28T00:29:46;18.49;44.38
65239;SHT30;51827;51.186;6.926;2023-02-28T00:30:46;18.47;44.40
65239;SHT30;51827;51.186;6.926;2023-02-28T00:31:46;18.49;44.41
65239;SHT30;51827;51.186;6.926;2023-02-28T00:32:47;18.48;44.39
65239;SHT30;51827;51.186;6.926;2023-02-28T00:33:47;18.48;44.35
65239;SHT30;51827;51.186;6.926;2023-02-28T00:34:47;18.48;44.37
65239;SHT30;51827;51.186;6.926;2023-02-28T00:35:47;18.47;44.38
65239;SHT30;51827;51.186;6.926;2023-02-28T00:36:48;18.49;44.41
65239;SHT30;51827;51.186;6.926;2023-02-28T00:37:48;18.49;44.38
65239;SHT30;51827;51.186;6.926;2023-02-28T00:38:48;18.49;44.39
65239;SHT30;51827;51.186;6.926;2023-02-28T00:39:48;18.48;44.41
65239;SHT30;51827;51.186;6.926;2023-02-28T00:40:48;18.49;44.40
65239;SHT30;51827;51.186;6.926;2023-02-28T00:41:48;18.48;44.38
65239;SHT30;51827;51.186;6.926;2023-02-28T00:42:49;18.47;44.37
65239;SHT30;51827;51.186;6.926;2023-02-28T00:43:49;18.49;44.32
65239;SHT30;51827;51.186;6.926;2023-02-28T00:44:49;18.48;44.36
65239;SHT30;51827;51.186;6.926;2023-02-28T00:45:49;18.51;44.38
65239;SHT30;51827;51.186;6.926;2023-02-28T00:46:49;18.49;44.35
65239;SHT30;51827;51.186;6.926;2023-02-28T00:47:50;18.51;44.37
65239;SHT30;51827;51.186;6.926;2023-02-28T00:48:50;18.48;44.40
65239;SHT30;51827;51.186;6.926;2023-02-28T00:49:50;18.48;44.31
65239;SHT30;51827;51.186;6.926;2023-02-28T00:50:50;18.47;44.36
65239;SHT30;51827;51.186;6.926;2023-02-28T00:51:50;18.49;44.37
65239;SHT30;51827;51.186;6.926;2023-02-28T00:52:51;18.48;44.37
65239;SHT30;51827;51.186;6.926;2023-02-28T00:53:51;18.48;44.36
65239;SHT30;51827;51.186;6.926;2023-02-28T00:54:51;18.49;44.31
65239;SHT30;51827;51.186;6.926;2023-02-28T00:55:52;18.49;44.30
65239;SHT30;51827;51.186;6.926;2023-02-28T00:56:52;18.48;44.36
65239;SHT30;51827;51.186;6.926;2023-02-28T00:57:52;18.48;44.36
65239;SHT30;51827;51.186;6.926;2023-02-28T00:58:52;18.47;44.34
65239;SHT30;51827;51.186;6.926;2023-02-28T00:59:52;18.45;44.36
65239;SHT30;51827;51.186;6.926;2023-02-28T01:00:52;18.47;44.37
65239;SHT30;51827;51.186;6.926;2023-02-28T01:01:53;18.47;44.39
65239;SHT30;51827;51.186;6.926;2023-02-28T01:02:53;18.47;44.37
65239;SHT30;51827;51.186;6.926;2023-02-28T01:03:53;18.45;44.39
65239;SHT30;51827;51.186;6.926;2023-02-28T01:04:53;18.47;44.33
65239;SHT30;51827;51.186;6.926;2023-02-28T01:05:53;18.48;44.32
65239;SHT30;51827;51.186;6.926;2023-02-28T01:06:53;18.48;44.35
65239;SHT30;51827;51.186;6.926;2023-02-28T01:07:54;18.47;44.32
65239;SHT30;51827;51.186;6.926;2023-02-28T01:08:54;18.47;44.30
65239;SHT30;51827;51.186;6.926;2023-02-28T01:09:54;18.51;44.31
65239;SHT30;51827;51.186;6.926;2023-02-28T01:10:54;18.48;44.30
65239;SHT30;51827;51.186;6.926;2023-02-28T01:11:54;18.47;44.35
65239;SHT30;51827;51.186;6.926;2023-02-28T01:12:54;18.47;44.37
65239;SHT30;51827;51.186;6.926;2023-02-28T01:13:55;18.49;44.36
65239;SHT30;51827;51.186;6.926;2023-02-28T01:14:55;18.48;44.34
65239;SHT30;51827;51.186;6.926;2023-02-28T01:15:55;18.48;44.32
65239;SHT30;51827;51.186;6.926;2023-02-28T01:16:55;18.47;44.37
65239;SHT30;51827;51.186;6.926;2023-02-28T01:17:55;18.48;44.34
65239;SHT30;51827;51.186;6.926;2023-02-28T01:18:56;18.47;44.39
65239;SHT30;51827;51.186;6.926;2023-02-28T01:19:56;18.47;44.38
65239;SHT30;51827;51.186;6.926;2023-02-28T01:20:56;18.48;44.36
65239;SHT30;51827;51.186;6.926;2023-02-28T01:21:57;18.47;44.41
65239;SHT30;51827;51.186;6.926;2023-02-28T01:22:59;18.45;44.37
65239;SHT30;51827;51.186;6.926;2023-02-28T01:24:00;18.45;44.38
65239;SHT30;51827;51.186;6.926;2023-02-28T01:25:00;18.45;44.41
65239;SHT30;51827;51.186;6.926;2023-02-28T01:26:04;18.44;44.42
65239;SHT30;51827;51.186;6.926;2023-02-28T01:27:05;18.44;44.41
65239;SHT30;51827;51.186;6.926;2023-02-28T01:28:05;18.44;44.44
65239;SHT30;51827;51.186;6.926;2023-02-28T01:29:05;18.42;44.43
65239;SHT30;51827;51.186;6.926;2023-02-28T01:30:06;18.44;44.46
65239;SHT30;51827;51.186;6.926;2023-02-28T01:31:07;18.42;44.41
65239;SHT30;51827;51.186;6.926;2023-02-28T01:32:07;18.41;44.36
65239;SHT30;51827;51.186;6.926;2023-02-28T01:33:08;18.45;44.41
65239;SHT30;51827;51.186;6.926;2023-02-28T01:34:08;18.42;44.42
65239;SHT30;51827;51.186;6.926;2023-02-28T01:35:08;18.42;44.44
65239;SHT30;51827;51.186;6.926;2023-02-28T01:37:11;18.44;44.42
65239;SHT30;51827;51.186;6.926;2023-02-28T01:38:11;18.44;44.39
65239;SHT30;51827;51.186;6.926;2023-02-28T01:39:11;18.45;44.35
65239;SHT30;51827;51.186;6.926;2023-02-28T01:40:12;18.47;44.32
65239;SHT30;51827;51.186;6.926;2023-02-28T01:41:16;18.45;44.34
65239;SHT30;51827;51.186;6.926;2023-02-28T01:42:16;18.45;44.39
65239;SHT30;51827;51.186;6.926;2023-02-28T01:43:21;18.45;44.39
65239;SHT30;51827;51.186;6.926;2023-02-28T01:45:40;18.41;44.41
65239;SHT30;51827;51.186;6.926;2023-02-28T01:46:41;18.41;44.41
65239;SHT30;51827;51.186;6.926;2023-02-28T01:47:41;18.45;44.35
65239;SHT30;51827;51.186;6.926;2023-02-28T01:48:51;18.42;44.39
65239;SHT30;51827;51.186;6.926;2023-02-28T01:49:51;18.44;44.41
65239;SHT30;51827;51.186;6.926;2023-02-28T01:50:52;18.44;44.40
65239;SHT30;51827;51.186;6.926;2023-02-28T01:51:53;18.44;44.35
65239;SHT30;51827;51.186;6.926;2023-02-28T01:52:55;18.42;44.35
65239;SHT30;51827;51.186;6.926;2023-02-28T01:53:57;18.44;44.40
65239;SHT30;51827;51.186;6.926;2023-02-28T01:54:59;18.41;44.35
65239;SHT30;51827;51.186;6.926;2023-02-28T01:55:59;18.42;44.40
65239;SHT30;51827;51.186;6.926;2023-02-28T01:57:13;18.42;44.36
65239;SHT30;51827;51.186;6.926;2023-02-28T01:58:15;18.42;44.38
65239;SHT30;51827;51.186;6.926;2023-02-28T01:59:20;18.44;44.34
65239;SHT30;51827;51.186;6.926;2023-02-28T02:00:23;18.42;44.40
65239;SHT30;51827;51.186;6.926;2023-02-28T02:01:23;18.42;44.37
65239;SHT30;51827;51.186;6.926;2023-02-28T02:02:26;18.42;44.41
65239;SHT30;51827;51.186;6.926;2023-02-28T02:03:27;18.44;44.30
65239;SHT30;51827;51.186;6.926;2023-02-28T02:04:31;18.45;44.31
65239;SHT30;51827;51.186;6.926;2023-02-28T02:05:32;18.45;44.33
65239;SHT30;51827;51.186;6.926;2023-02-28T02:06:37;18.42;44.34
65239;SHT30;51827;51.186;6.926;2023-02-28T02:07:38;18.44;44.37
65239;SHT30;51827;51.186;6.926;2023-02-28T02:08:39;18.45;44.39
65239;SHT30;51827;51.186;6.926;2023-02-28T02:09:39;18.44;44.31
65239;SHT30;51827;51.186;6.926;2023-02-28T02:10:44;18.42;44.34
65239;SHT30;51827;51.186;6.926;2023-02-28T02:11:44;18.42;44.34
65239;SHT30;51827;51.186;6.926;2023-02-28T02:12:49;18.44;44.37
65239;SHT30;51827;51.186;6.926;2023-02-28T02:15:47;18.42;44.37
65239;SHT30;51827;51.186;6.926;2023-02-28T02:17:39;18.42;44.37
65239;SHT30;51827;51.186;6.926;2023-02-28T02:18:48;18.42;44.36
65239;SHT30;51827;51.186;6.926;2023-02-28T02:22:11;18.44;44.34
65239;SHT30;51827;51.186;6.926;2023-02-28T02:36:05;18.42;44.33
65239;SHT30;51827;51.186;6.926;2023-02-28T02:37:15;18.42;44.34
65239;SHT30;51827;51.186;6.926;2023-02-28T02:40:25;18.42;44.36
65239;SHT30;51827;51.186;6.926;2023-02-28T02:42:27;18.44;44.28
65239;SHT30;51827;51.186;6.926;2023-02-28T02:45:40;18.42;44.29
65239;SHT30;51827;51.186;6.926;2023-02-28T02:46:45;18.41;44.30
65239;SHT30;51827;51.186;6.926;2023-02-28T02:47:45;18.42;44.34
65239;SHT30;51827;51.186;6.926;2023-02-28T02:48:46;18.40;44.34
65239;SHT30;51827;51.186;6.926;2023-02-28T02:49:47;18.44;44.34
65239;SHT30;51827;51.186;6.926;2023-02-28T02:50:50;18.41;44.29
65239;SHT30;51827;51.186;6.926;2023-02-28T02:51:51;18.44;44.26
65239;SHT30;51827;51.186;6.926;2023-02-28T02:52:54;18.41;44.34
65239;SHT30;51827;51.186;6.926;2023-02-28T02:54:04;18.42;44.33
65239;SHT30;51827;51.186;6.926;2023-02-28T02:55:05;18.41;44.28
65239;SHT30;51827;51.186;6.926;2023-02-28T02:56:07;18.44;44.29
65239;SHT30;51827;51.186;6.926;2023-02-28T02:57:12;18.45;44.26
65239;SHT30;51827;51.186;6.926;2023-02-28T02:58:14;18.45;44.26
65239;SHT30;51827;51.186;6.926;2023-02-28T02:59:18;18.47;44.23
65239;SHT30;51827;51.186;6.926;2023-02-28T03:00:21;18.41;44.27
65239;SHT30;51827;51.186;6.926;2023-02-28T03:01:23;18.44;44.24
65239;SHT30;51827;51.186;6.926;2023-02-28T03:02:24;18.42;44.28
65239;SHT30;51827;51.186;6.926;2023-02-28T03:03:26;18.40;44.29
65239;SHT30;51827;51.186;6.926;2023-02-28T03:04:27;18.42;44.28
65239;SHT30;51827;51.186;6.926;2023-02-28T03:05:34;18.41;44.29
65239;SHT30;51827;51.186;6.926;2023-02-28T03:06:35;18.41;44.28
65239;SHT30;51827;51.186;6.926;2023-02-28T03:07:35;18.44;44.29
65239;SHT30;51827;51.186;6.926;2023-02-28T03:08:36;18.40;44.30
65239;SHT30;51827;51.186;6.926;2023-02-28T03:09:38;18.42;44.28
65239;SHT30;51827;51.186;6.926;2023-02-28T03:10:39;18.41;44.29
65239;SHT30;51827;51.186;6.926;2023-02-28T03:11:40;18.44;44.33
65239;SHT30;51827;51.186;6.926;2023-02-28T03:12:44;18.44;44.30
65239;SHT30;51827;51.186;6.926;2023-02-28T03:13:52;18.44;44.26
65239;SHT30;51827;51.186;6.926;2023-02-28T03:16:09;18.42;44.29
65239;SHT30;51827;51.186;6.926;2023-02-28T03:18:44;18.44;44.25
65239;SHT30;51827;51.186;6.926;2023-02-28T03:23:31;18.44;44.26
65239;SHT30;51827;51.186;6.926;2023-02-28T03:26:58;18.44;44.28
65239;SHT30;51827;51.186;6.926;2023-02-28T03:31:37;18.41;44.29
65239;SHT30;51827;51.186;6.926;2023-02-28T03:32:40;18.41;44.27
65239;SHT30;51827;51.186;6.926;2023-02-28T03:33:55;18.41;44.25
65239;SHT30;51827;51.186;6.926;2023-02-28T03:36:09;18.40;44.30
65239;SHT30;51827;51.186;6.926;2023-02-28T03:37:11;18.42;44.30
65239;SHT30;51827;51.186;6.926;2023-02-28T03:38:14;18.41;44.25
65239;SHT30;51827;51.186;6.926;2023-02-28T03:39:20;18.44;44.23
65239;SHT30;51827;51.186;6.926;2023-02-28T03:40:21;18.42;44.29
65239;SHT30;51827;51.186;6.926;2023-02-28T03:41:24;18.44;44.24
65239;SHT30;51827;51.186;6.926;2023-02-28T03:42:27;18.44;44.22
65239;SHT30;51827;51.186;6.926;2023-02-28T03:43:29;18.45;44.26
65239;SHT30;51827;51.186;6.926;2023-02-28T03:44:32;18.44;44.25
65239;SHT30;51827;51.186;6.926;2023-02-28T03:45:35;18.42;44.16
65239;SHT30;51827;51.186;6.926;2023-02-28T03:46:38;18.47;44.22
65239;SHT30;51827;51.186;6.926;2023-02-28T03:47:52;18.45;44.23
65239;SHT30;51827;51.186;6.926;2023-02-28T03:48:57;18.45;44.23
65239;SHT30;51827;51.186;6.926;2023-02-28T03:50:02;18.44;44.22
65239;SHT30;51827;51.186;6.926;2023-02-28T03:51:03;18.42;44.19
65239;SHT30;51827;51.186;6.926;2023-02-28T03:52:06;18.42;44.23
65239;SHT30;51827;51.186;6.926;2023-02-28T03:53:11;18.42;44.27
65239;SHT30;51827;51.186;6.926;2023-02-28T03:54:13;18.41;44.23
65239;SHT30;51827;51.186;6.926;2023-02-28T03:55:15;18.44;44.23
65239;SHT30;51827;51.186;6.926;2023-02-28T03:56:25;18.41;44.18
65239;SHT30;51827;51.186;6.926;2023-02-28T03:57:27;18.41;44.23
65239;SHT30;51827;51.186;6.926;2023-02-28T03:59:59;18.40;44.23
65239;SHT30;51827;51.186;6.926;2023-02-28T04:01:05;18.44;44.20
65239;SHT30;51827;51.186;6.926;2023-02-28T04:02:07;18.45;44.18
65239;SHT30;51827;51.186;6.926;2023-02-28T04:03:07;18.42;44.22
65239;SHT30;51827;51.186;6.926;2023-02-28T04:04:10;18.45;44.22
65239;SHT30;51827;51.186;6.926;2023-02-28T04:05:11;18.44;44.20
65239;SHT30;51827;51.186;6.926;2023-02-28T04:06:15;18.45;44.15
65239;SHT30;51827;51.186;6.926;2023-02-28T04:07:16;18.45;44.17
65239;SHT30;51827;51.186;6.926;2023-02-28T04:08:16;18.47;44.14
65239;SHT30;51827;51.186;6.926;2023-02-28T04:09:17;18.45;44.18
65239;SHT30;51827;51.186;6.926;2023-02-28T04:10:17;18.42;44.22
65239;SHT30;51827;51.186;6.926;2023-02-28T04:11:32;18.42;44.21
65239;SHT30;51827;51.186;6.926;2023-02-28T04:12:32;18.41;44.23
65239;SHT30;51827;51.186;6.926;2023-02-28T04:13:32;18.41;44.23
65239;SHT30;51827;51.186;6.926;2023-02-28T04:14:32;18.44;44.23
65239;SHT30;51827;51.186;6.926;2023-02-28T04:15:33;18.42;44.21
65239;SHT30;51827;51.186;6.926;2023-02-28T04:16:33;18.42;44.22
65239;SHT30;51827;51.186;6.926;2023-02-28T04:17:34;18.44;44.17
65239;SHT30;51827;51.186;6.926;2023-02-28T04:18:34;18.45;44.22
65239;SHT30;51827;51.186;6.926;2023-02-28T04:19:34;18.44;44.14
65239;SHT30;51827;51.186;6.926;2023-02-28T04:20:34;18.44;44.22
65239;SHT30;51827;51.186;6.926;2023-02-28T04:21:36;18.44;44.22
65239;SHT30;51827;51.186;6.926;2023-02-28T04:22:36;18.44;44.23
65239;SHT30;51827;51.186;6.926;2023-02-28T04:23:36;18.47;44.22
65239;SHT30;51827;51.186;6.926;2023-02-28T04:24:36;18.44;44.22
65239;SHT30;51827;51.186;6.926;2023-02-28T04:25:37;18.44;44.23
65239;SHT30;51827;51.186;6.926;2023-02-28T04:26:37;18.44;44.26
65239;SHT30;51827;51.186;6.926;2023-02-28T04:27:37;18.41;44.29
65239;SHT30;51827;51.186;6.926;2023-02-28T04:28:38;18.44;44.29
65239;SHT30;51827;51.186;6.926;2023-02-28T04:29:38;18.44;44.30
65239;SHT30;51827;51.186;6.926;2023-02-28T04:30:38;18.44;44.33
65239;SHT30;51827;51.186;6.926;2023-02-28T04:31:38;18.45;44.34
65239;SHT30;51827;51.186;6.926;2023-02-28T04:32:40;18.44;44.31
65239;SHT30;51827;51.186;6.926;2023-02-28T04:33:40;18.42;44.29
65239;SHT30;51827;51.186;6.926;2023-02-28T04:34:40;18.45;44.33
65239;SHT30;51827;51.186;6.926;2023-02-28T04:35:40;18.44;44.29
65239;SHT30;51827;51.186;6.926;2023-02-28T04:36:40;18.42;44.35
65239;SHT30;51827;51.186;6.926;2023-02-28T04:37:40;18.41;44.39
65239;SHT30;51827;51.186;6.926;2023-02-28T04:38:40;18.44;44.31
65239;SHT30;51827;51.186;6.926;2023-02-28T04:39:41;18.44;44.37
65239;SHT30;51827;51.186;6.926;2023-02-28T04:40:41;18.47;44.34
65239;SHT30;51827;51.186;6.926;2023-02-28T04:41:42;18.45;44.36
65239;SHT30;51827;51.186;6.926;2023-02-28T04:42:42;18.42;44.36
65239;SHT30;51827;51.186;6.926;2023-02-28T04:43:42;18.42;44.39
65239;SHT30;51827;51.186;6.926;2023-02-28T04:44:42;18.42;44.37
65239;SHT30;51827;51.186;6.926;2023-02-28T04:45:43;18.42;44.36
65239;SHT30;51827;51.186;6.926;2023-02-28T04:46:43;18.42;44.39
65239;SHT30;51827;51.186;6.926;2023-02-28T04:47:43;18.41;44.41
65239;SHT30;51827;51.186;6.926;2023-02-28T04:48:43;18.41;44.41
65239;SHT30;51827;51.186;6.926;2023-02-28T04:49:44;18.45;44.38
65239;SHT30;51827;51.186;6.926;2023-02-28T04:50:44;18.44;44.41
65239;SHT30;51827;51.186;6.926;2023-02-28T04:51:44;18.44;44.39
65239;SHT30;51827;51.186;6.926;2023-02-28T04:52:44;18.42;44.41
65239;SHT30;51827;51.186;6.926;2023-02-28T04:53:44;18.42;44.42
65239;SHT30;51827;51.186;6.926;2023-02-28T04:54:45;18.42;44.42
65239;SHT30;51827;51.186;6.926;2023-02-28T04:55:45;18.41;44.44
65239;SHT30;51827;51.186;6.926;2023-02-28T04:56:45;18.42;44.46
65239;SHT30;51827;51.186;6.926;2023-02-28T04:57:45;18.42;44.44
65239;SHT30;51827;51.186;6.926;2023-02-28T04:58:46;18.42;44.40
65239;SHT30;51827;51.186;6.926;2023-02-28T04:59:46;18.42;44.46
65239;SHT30;51827;51.186;6.926;2023-02-28T05:00:47;18.41;44.46
65239;SHT30;51827;51.186;6.926;2023-02-28T05:01:47;18.41;44.53
65239;SHT30;51827;51.186;6.926;2023-02-28T05:02:48;18.42;44.52
65239;SHT30;51827;51.186;6.926;2023-02-28T05:03:48;18.41;44.49
65239;SHT30;51827;51.186;6.926;2023-02-28T05:04:48;18.42;44.51
65239;SHT30;51827;51.186;6.926;2023-02-28T05:05:49;18.44;44.56
65239;SHT30;51827;51.186;6.926;2023-02-28T05:06:49;18.44;44.58
65239;SHT30;51827;51.186;6.926;2023-02-28T05:07:49;18.42;44.56
65239;SHT30;51827;51.186;6.926;2023-02-28T05:08:49;18.42;44.56
65239;SHT30;51827;51.186;6.926;2023-02-28T05:09:49;18.44;44.60
65239;SHT30;51827;51.186;6.926;2023-02-28T05:10:50;18.42;44.67
65239;SHT30;51827;51.186;6.926;2023-02-28T05:11:50;18.40;44.68
65239;SHT30;51827;51.186;6.926;2023-02-28T05:12:50;18.41;44.66
65239;SHT30;51827;51.186;6.926;2023-02-28T05:13:50;18.45;44.68
65239;SHT30;51827;51.186;6.926;2023-02-28T05:14:50;18.44;44.66
65239;SHT30;51827;51.186;6.926;2023-02-28T05:15:50;18.45;44.71
65239;SHT30;51827;51.186;6.926;2023-02-28T05:16:51;18.44;44.78
65239;SHT30;51827;51.186;6.926;2023-02-28T05:17:51;18.45;44.72
65239;SHT30;51827;51.186;6.926;2023-02-28T05:18:51;18.45;44.81
65239;SHT30;51827;51.186;6.926;2023-02-28T05:19:51;18.47;44.85
65239;SHT30;51827;51.186;6.926;2023-02-28T05:20:51;18.45;44.85
65239;SHT30;51827;51.186;6.926;2023-02-28T05:21:52;18.44;44.85
65239;SHT30;51827;51.186;6.926;2023-02-28T05:22:53;18.45;44.90
65239;SHT30;51827;51.186;6.926;2023-02-28T05:23:53;18.44;44.88
65239;SHT30;51827;51.186;6.926;2023-02-28T05:24:54;18.42;44.79
65239;SHT30;51827;51.186;6.926;2023-02-28T05:25:54;18.44;44.79
65239;SHT30;51827;51.186;6.926;2023-02-28T05:26:54;18.45;44.78
65239;SHT30;51827;51.186;6.926;2023-02-28T05:27:55;18.45;44.83
65239;SHT30;51827;51.186;6.926;2023-02-28T05:28:55;18.44;44.85
65239;SHT30;51827;51.186;6.926;2023-02-28T05:29:56;18.44;44.98
65239;SHT30;51827;51.186;6.926;2023-02-28T05:30:56;18.48;45.11
65239;SHT30;51827;51.186;6.926;2023-02-28T05:31:56;18.48;44.88
65239;SHT30;51827;51.186;6.926;2023-02-28T05:32:56;18.47;44.94
65239;SHT30;51827;51.186;6.926;2023-02-28T05:33:57;18.47;44.99
65239;SHT30;51827;51.186;6.926;2023-02-28T05:34:57;18.48;45.07
65239;SHT30;51827;51.186;6.926;2023-02-28T05:35:57;18.47;45.05
65239;SHT30;51827;51.186;6.926;2023-02-28T05:36:57;18.45;45.05
65239;SHT30;51827;51.186;6.926;2023-02-28T05:37:57;18.45;44.99
65239;SHT30;51827;51.186;6.926;2023-02-28T05:38:57;18.45;44.92
65239;SHT30;51827;51.186;6.926;2023-02-28T05:39:58;18.48;44.87
65239;SHT30;51827;51.186;6.926;2023-02-28T05:40:58;18.47;44.83
65239;SHT30;51827;51.186;6.926;2023-02-28T05:41:58;18.47;44.83
65239;SHT30;51827;51.186;6.926;2023-02-28T05:42:58;18.45;44.81
65239;SHT30;51827;51.186;6.926;2023-02-28T05:43:58;18.45;44.73
65239;SHT30;51827;51.186;6.926;2023-02-28T05:44:59;18.47;44.78
65239;SHT30;51827;51.186;6.926;2023-02-28T05:45:59;18.45;44.76
65239;SHT30;51827;51.186;6.926;2023-02-28T05:46:59;18.45;44.76
65239;SHT30;51827;51.186;6.926;2023-02-28T05:47:59;18.45;44.77
65239;SHT30;51827;51.186;6.926;2023-02-28T05:48:59;18.45;44.71
65239;SHT30;51827;51.186;6.926;2023-02-28T05:49:59;18.44;44.75
65239;SHT30;51827;51.186;6.926;2023-02-28T05:50:59;18.47;44.74
65239;SHT30;51827;51.186;6.926;2023-02-28T05:52:00;18.44;44.75
65239;SHT30;51827;51.186;6.926;2023-02-28T05:53:00;18.45;44.79
65239;SHT30;51827;51.186;6.926;2023-02-28T05:54:00;18.44;44.78
65239;SHT30;51827;51.186;6.926;2023-02-28T05:55:00;18.44;44.82
65239;SHT30;51827;51.186;6.926;2023-02-28T05:56:01;18.42;44.79
65239;SHT30;51827;51.186;6.926;2023-02-28T05:57:01;18.44;44.76
65239;SHT30;51827;51.186;6.926;2023-02-28T05:58:01;18.47;44.74
65239;SHT30;51827;51.186;6.926;2023-02-28T05:59:01;18.44;44.75
65239;SHT30;51827;51.186;6.926;2023-02-28T06:00:02;18.45;44.71
65239;SHT30;51827;51.186;6.926;2023-02-28T06:02:21;18.44;44.75
65239;SHT30;51827;51.186;6.926;2023-02-28T06:03:21;18.45;44.71
65239;SHT30;51827;51.186;6.926;2023-02-28T06:04:21;18.44;44.70
65239;SHT30;51827;51.186;6.926;2023-02-28T06:05:21;18.41;44.74
65239;SHT30;51827;51.186;6.926;2023-02-28T06:06:22;18.42;44.74
65239;SHT30;51827;51.186;6.926;2023-02-28T06:07:22;18.45;44.69
65239;SHT30;51827;51.186;6.926;2023-02-28T06:08:22;18.44;44.71
65239;SHT30;51827;51.186;6.926;2023-02-28T06:09:22;18.44;44.68
65239;SHT30;51827;51.186;6.926;2023-02-28T06:10:22;18.45;44.69
65239;SHT30;51827;51.186;6.926;2023-02-28T06:11:23;18.44;44.67
65239;SHT30;51827;51.186;6.926;2023-02-28T06:12:23;18.44;44.71
65239;SHT30;51827;51.186;6.926;2023-02-28T06:13:23;18.44;44.64
65239;SHT30;51827;51.186;6.926;2023-02-28T06:14:23;18.45;44.64
65239;SHT30;51827;51.186;6.926;2023-02-28T06:15:23;18.47;44.64
65239;SHT30;51827;51.186;6.926;2023-02-28T06:16:24;18.45;44.63
65239;SHT30;51827;51.186;6.926;2023-02-28T06:17:24;18.47;44.61
65239;SHT30;51827;51.186;6.926;2023-02-28T06:18:24;18.47;44.61
65239;SHT30;51827;51.186;6.926;2023-02-28T06:19:24;18.47;44.58
65239;SHT30;51827;51.186;6.926;2023-02-28T06:20:25;18.45;44.64
65239;SHT30;51827;51.186;6.926;2023-02-28T06:21:26;18.45;44.65
65239;SHT30;51827;51.186;6.926;2023-02-28T06:22:26;18.45;44.65
65239;SHT30;51827;51.186;6.926;2023-02-28T06:23:26;18.45;44.68
65239;SHT30;51827;51.186;6.926;2023-02-28T06:24:26;18.44;44.62
65239;SHT30;51827;51.186;6.926;2023-02-28T06:25:27;18.45;44.65
65239;SHT30;51827;51.186;6.926;2023-02-28T06:26:27;18.45;44.64
65239;SHT30;51827;51.186;6.926;2023-02-28T06:27:27;18.44;44.63
65239;SHT30;51827;51.186;6.926;2023-02-28T06:28:28;18.44;44.59
65239;SHT30;51827;51.186;6.926;2023-02-28T06:29:28;18.42;44.67
65239;SHT30;51827;51.186;6.926;2023-02-28T06:30:28;18.44;44.72
65239;SHT30;51827;51.186;6.926;2023-02-28T06:31:28;18.40;44.68
65239;SHT30;51827;51.186;6.926;2023-02-28T06:32:28;18.42;44.66
65239;SHT30;51827;51.186;6.926;2023-02-28T06:33:28;18.42;44.61
65239;SHT30;51827;51.186;6.926;2023-02-28T06:34:29;18.42;44.66
65239;SHT30;51827;51.186;6.926;2023-02-28T06:35:29;18.41;44.64
65239;SHT30;51827;51.186;6.926;2023-02-28T06:36:29;18.42;44.65
65239;SHT30;51827;51.186;6.926;2023-02-28T06:37:30;18.40;44.65
65239;SHT30;51827;51.186;6.926;2023-02-28T06:38:30;18.42;44.70
65239;SHT30;51827;51.186;6.926;2023-02-28T06:39:30;18.41;44.72
65239;SHT30;51827;51.186;6.926;2023-02-28T06:40:31;18.42;44.64
65239;SHT30;51827;51.186;6.926;2023-02-28T06:41:31;18.42;44.65
65239;SHT30;51827;51.186;6.926;2023-02-28T06:42:31;18.44;44.61
65239;SHT30;51827;51.186;6.926;2023-02-28T06:43:33;18.42;44.60
65239;SHT30;51827;51.186;6.926;2023-02-28T06:44:33;18.42;44.59
65239;SHT30;51827;51.186;6.926;2023-02-28T06:45:33;18.42;44.63
65239;SHT30;51827;51.186;6.926;2023-02-28T06:46:33;18.44;44.59
65239;SHT30;51827;51.186;6.926;2023-02-28T06:47:34;18.42;44.57
65239;SHT30;51827;51.186;6.926;2023-02-28T06:48:34;18.48;44.58
65239;SHT30;51827;51.186;6.926;2023-02-28T06:49:35;18.45;44.59
65239;SHT30;51827;51.186;6.926;2023-02-28T06:50:35;18.44;44.57
65239;SHT30;51827;51.186;6.926;2023-02-28T06:51:36;18.44;44.62
65239;SHT30;51827;51.186;6.926;2023-02-28T06:52:37;18.47;44.60
65239;SHT30;51827;51.186;6.926;2023-02-28T06:53:37;18.42;44.57
65239;SHT30;51827;51.186;6.926;2023-02-28T06:54:37;18.45;44.57
65239;SHT30;51827;51.186;6.926;2023-02-28T06:55:38;18.44;44.61
65239;SHT30;51827;51.186;6.926;2023-02-28T06:56:38;18.42;44.68
65239;SHT30;51827;51.186;6.926;2023-02-28T06:57:38;18.45;44.59
65239;SHT30;51827;51.186;6.926;2023-02-28T06:58:38;18.44;44.55
65239;SHT30;51827;51.186;6.926;2023-02-28T06:59:39;18.42;44.60
65239;SHT30;51827;51.186;6.926;2023-02-28T07:00:39;18.41;44.58
65239;SHT30;51827;51.186;6.926;2023-02-28T07:01:39;18.45;44.59
65239;SHT30;51827;51.186;6.926;2023-02-28T07:02:39;18.42;44.56
65239;SHT30;51827;51.186;6.926;2023-02-28T07:03:39;18.44;44.59
65239;SHT30;51827;51.186;6.926;2023-02-28T07:04:40;18.45;44.59
65239;SHT30;51827;51.186;6.926;2023-02-28T07:05:40;18.44;44.54
65239;SHT30;51827;51.186;6.926;2023-02-28T07:06:40;18.45;44.58
65239;SHT30;51827;51.186;6.926;2023-02-28T07:07:40;18.42;44.52